createdAt,value
2017-10-28T00:02:35.908Z,12.06
2017-10-28T00:17:48.058Z,11.65
2017-10-28T00:47:41.859Z,10.98
2017-10-28T01:02:37.286Z,10.68
2017-10-28T01:17:40.174Z,10.48
2017-10-28T01:32:37.211Z,10.23
2017-10-28T01:47:37.327Z,10.11
2017-10-28T02:02:44.567Z,10.01
2017-10-28T02:47:48.445Z,9.70
2017-10-28T03:02:50.264Z,9.56
2017-10-28T03:17:35.592Z,9.50
2017-10-28T03:32:35.068Z,9.47
2017-10-28T03:47:34.417Z,9.44
2017-10-28T04:02:34.844Z,9.43
2017-10-28T04:17:34.812Z,9.44
2017-10-28T04:32:34.762Z,9.41
2017-10-28T04:47:34.700Z,9.39
2017-10-28T05:02:34.137Z,9.34
2017-10-28T05:17:37.128Z,9.33
2017-10-28T05:32:35.008Z,9.42
2017-10-28T05:47:35.073Z,9.51
2017-10-28T06:02:34.383Z,9.62
2017-10-28T06:17:34.276Z,9.85
2017-10-28T06:32:34.229Z,10.02
2017-10-28T06:47:34.227Z,10.16
2017-10-28T07:02:36.616Z,10.25
2017-10-28T07:17:34.571Z,10.28
2017-10-28T07:32:35.023Z,10.49
2017-10-28T07:47:34.489Z,10.50
2017-10-28T08:02:34.874Z,10.46
2017-10-28T08:17:34.825Z,10.51
2017-10-28T08:32:36.754Z,11.17
2017-10-28T08:47:36.774Z,12.69
2017-10-28T09:02:36.103Z,13.20
2017-10-28T09:17:35.043Z,13.46
2017-10-28T09:32:35.012Z,13.41
2017-10-28T09:47:34.964Z,13.74
2017-10-28T10:02:34.379Z,15.35
2017-10-28T10:17:34.334Z,15.95
2017-10-28T10:32:34.226Z,15.18
2017-10-28T10:47:34.212Z,14.71
2017-10-28T11:02:34.643Z,14.30
2017-10-28T11:17:34.693Z,14.27
2017-10-28T11:32:34.505Z,14.35
2017-10-28T11:47:34.459Z,14.41
2017-10-28T12:02:34.936Z,14.12
2017-10-28T12:17:34.862Z,13.66
2017-10-28T12:32:34.772Z,13.50
2017-10-28T12:47:34.715Z,13.42
2017-10-28T13:02:35.195Z,13.16
2017-10-28T13:17:35.130Z,13.05
2017-10-28T13:32:35.103Z,12.71
2017-10-28T13:47:35.020Z,12.49
2017-10-28T14:02:34.548Z,12.32
2017-10-28T14:17:34.488Z,12.07
2017-10-28T14:32:34.863Z,11.73
2017-10-28T14:47:35.307Z,11.58
2017-10-28T15:02:34.790Z,11.28
2017-10-28T15:17:34.728Z,10.98
2017-10-28T15:32:40.639Z,10.74
2017-10-28T15:47:38.848Z,10.57
2017-10-28T16:02:35.904Z,10.46
2017-10-28T16:17:34.983Z,10.28
2017-10-28T16:32:34.951Z,9.95
2017-10-28T16:47:34.968Z,9.66
2017-10-28T17:02:36.736Z,9.51
2017-10-28T17:17:34.806Z,9.37
2017-10-28T17:32:35.265Z,9.21
2017-10-28T17:47:36.336Z,9.08
2017-10-28T18:02:35.616Z,8.93
2017-10-28T18:17:34.604Z,8.78
2017-10-28T18:32:34.558Z,8.70
2017-10-28T18:47:34.471Z,8.67
2017-10-28T19:02:35.699Z,8.64
2017-10-28T19:17:36.356Z,8.58
2017-10-28T19:32:34.797Z,8.49
2017-10-28T19:47:36.774Z,8.45
